createdAt,value
2023-06-20T00:02:29.300Z,19.53
2023-06-20T00:05:07.460Z,19.47
2023-06-20T00:07:37.258Z,19.40
2023-06-20T00:10:07.069Z,19.32
2023-06-20T00:12:36.470Z,19.28
2023-06-20T00:15:10.486Z,19.24
2023-06-20T00:17:45.438Z,19.19
2023-06-20T00:20:15.446Z,19.14
2023-06-20T00:22:44.945Z,19.10
2023-06-20T00:25:14.552Z,19.04
2023-06-20T00:27:43.250Z,18.99
2023-06-20T00:30:13.249Z,18.95
2023-06-20T00:32:42.073Z,18.91
2023-06-20T00:35:11.147Z,18.86
2023-06-20T00:37:40.327Z,18.80
2023-06-20T00:40:09.615Z,18.75
2023-06-20T00:42:38.519Z,18.68
2023-06-20T00:45:29.611Z,18.63
2023-06-20T00:47:59.884Z,18.57
2023-06-20T00:50:35.244Z,18.52
2023-06-20T00:53:08.407Z,18.48
2023-06-20T00:55:45.979Z,18.44
2023-06-20T00:58:18.460Z,18.39
2023-06-20T01:00:51.504Z,18.36
2023-06-20T01:03:25.760Z,18.30
2023-06-20T01:06:16.964Z,18.25
2023-06-20T01:09:27.721Z,18.18
2023-06-20T01:12:29.109Z,18.13
2023-06-20T01:15:15.323Z,18.07
2023-06-20T01:17:56.960Z,18.01
2023-06-20T01:20:34.145Z,17.95
2023-06-20T01:23:11.665Z,17.89
2023-06-20T01:26:06.268Z,17.83
2023-06-20T01:28:40.149Z,17.78
2023-06-20T01:31:12.762Z,17.74
2023-06-20T01:34:09.513Z,17.68
2023-06-20T01:36:43.815Z,17.64
2023-06-20T01:39:24.368Z,17.60
2023-06-20T01:41:53.588Z,17.57
2023-06-20T01:44:22.976Z,17.55
2023-06-20T01:46:52.185Z,17.53
2023-06-20T01:49:21.242Z,17.47
2023-06-20T01:51:57.242Z,17.38
2023-06-20T01:54:28.962Z,17.31
2023-06-20T01:57:01.032Z,17.28
2023-06-20T01:59:30.375Z,17.25
2023-06-20T02:02:00.969Z,17.23
2023-06-20T02:04:30.557Z,17.21
2023-06-20T02:07:00.080Z,17.20
2023-06-20T02:09:29.978Z,17.19
2023-06-20T02:11:59.792Z,17.19
2023-06-20T02:14:28.718Z,17.17
2023-06-20T02:16:58.698Z,17.15
2023-06-20T02:19:28.127Z,17.11
2023-06-20T02:21:58.643Z,17.09
2023-06-20T02:24:29.194Z,17.04
2023-06-20T02:26:59.595Z,17.00
2023-06-20T02:29:33.596Z,16.96
2023-06-20T02:32:04.487Z,16.87
2023-06-20T02:34:35.206Z,16.78
2023-06-20T02:37:06.141Z,16.71
2023-06-20T02:39:35.110Z,16.65
2023-06-20T02:42:06.046Z,16.57
2023-06-20T02:44:34.630Z,16.51
2023-06-20T02:47:15.498Z,16.49
2023-06-20T02:50:03.357Z,16.48
2023-06-20T02:52:55.842Z,16.47
2023-06-20T02:55:56.634Z,16.44
2023-06-20T02:58:29.489Z,16.38
2023-06-20T03:01:05.149Z,16.36
2023-06-20T03:03:41.677Z,16.37
2023-06-20T03:06:16.989Z,16.38
2023-06-20T03:08:52.359Z,16.40
2023-06-20T03:11:27.244Z,16.42
2023-06-20T03:14:06.670Z,16.45
2023-06-20T03:16:39.776Z,16.49
2023-06-20T03:19:16.126Z,16.54
2023-06-20T03:21:46.351Z,16.59
2023-06-20T03:24:15.684Z,16.64
2023-06-20T03:26:44.520Z,16.68
2023-06-20T03:29:13.329Z,16.73
2023-06-20T03:31:42.684Z,16.80
2023-06-20T03:34:11.750Z,16.87
2023-06-20T03:36:41.146Z,16.93
2023-06-20T03:39:10.335Z,17.02
2023-06-20T03:41:39.141Z,17.11
2023-06-20T03:44:07.685Z,17.20
2023-06-20T03:46:36.624Z,17.30
2023-06-20T03:49:06.124Z,17.37
2023-06-20T03:51:36.197Z,17.46
2023-06-20T03:54:07.039Z,17.55
2023-06-20T03:56:36.038Z,17.67
2023-06-20T03:59:05.350Z,17.79
2023-06-20T04:01:34.201Z,17.90
2023-06-20T04:04:05.699Z,18.00
2023-06-20T04:06:35.215Z,18.12
2023-06-20T04:09:06.031Z,18.25
2023-06-20T04:11:35.136Z,18.41
2023-06-20T04:14:06.978Z,18.57
2023-06-20T04:16:43.093Z,18.75
2023-06-20T04:19:18.680Z,18.92
2023-06-20T04:21:53.413Z,19.10
2023-06-20T04:24:26.059Z,19.27
2023-06-20T04:27:00.711Z,19.44
2023-06-20T04:29:33.404Z,19.63
2023-06-20T04:32:09.551Z,19.81
2023-06-20T04:34:43.916Z,19.99
2023-06-20T04:37:17.956Z,20.17
2023-06-20T04:39:49.463Z,20.37
2023-06-20T04:42:24.101Z,20.58
2023-06-20T04:44:54.500Z,20.77
2023-06-20T04:47:23.849Z,20.94
2023-06-20T04:49:52.793Z,21.14
2023-06-20T04:52:25.275Z,21.33
2023-06-20T04:55:09.947Z,21.49
2023-06-20T04:57:43.569Z,21.68
2023-06-20T05:00:17.690Z,21.84
2023-06-20T05:02:50.163Z,22.03
2023-06-20T05:05:22.925Z,22.21
2023-06-20T05:07:55.086Z,22.38
2023-06-20T05:10:35.219Z,22.54
2023-06-20T05:13:09.928Z,22.69
2023-06-20T05:15:42.274Z,22.80
2023-06-20T05:18:20.814Z,22.92
2023-06-20T05:20:59.872Z,23.05
2023-06-20T05:23:32.678Z,23.16
2023-06-20T05:26:03.570Z,23.24
2023-06-20T05:28:34.097Z,23.31
2023-06-20T05:31:05.611Z,23.34
2023-06-20T05:33:34.679Z,23.35
2023-06-20T05:36:04.262Z,23.37
2023-06-20T05:38:33.244Z,23.39
2023-06-20T05:41:02.878Z,23.41
2023-06-20T05:43:32.675Z,23.46
2023-06-20T05:46:01.462Z,23.54
2023-06-20T05:48:31.802Z,23.62
2023-06-20T05:51:01.671Z,23.71
2023-06-20T05:53:31.106Z,23.78
2023-06-20T05:56:00.195Z,23.84
2023-06-20T05:58:30.324Z,23.92
2023-06-20T06:01:00.695Z,24.05
2023-06-20T06:03:31.986Z,24.21
2023-06-20T06:06:02.376Z,24.39
2023-06-20T06:08:31.203Z,24.58
2023-06-20T06:11:00.284Z,24.75
2023-06-20T06:13:30.621Z,24.92
2023-06-20T06:16:01.188Z,25.09
2023-06-20T06:18:32.253Z,25.25
2023-06-20T06:21:01.487Z,25.42
2023-06-20T06:23:31.208Z,25.61
2023-06-20T06:26:00.408Z,25.79
2023-06-20T06:28:32.366Z,25.98
2023-06-20T06:31:02.950Z,26.15
2023-06-20T06:33:33.068Z,26.32
2023-06-20T06:36:02.117Z,26.49
2023-06-20T06:38:34.177Z,26.63
2023-06-20T06:41:04.296Z,26.78
2023-06-20T06:43:33.198Z,26.93
2023-06-20T06:46:02.657Z,27.06
2023-06-20T06:48:32.092Z,27.19
2023-06-20T06:51:01.839Z,27.30
2023-06-20T06:53:31.017Z,27.42
2023-06-20T06:56:00.091Z,27.56
2023-06-20T06:58:28.895Z,27.72
2023-06-20T07:00:58.506Z,27.86
2023-06-20T07:03:27.823Z,28.01
2023-06-20T07:05:57.294Z,28.09
2023-06-20T07:08:26.096Z,28.15
2023-06-20T07:10:56.204Z,28.21
2023-06-20T07:13:25.724Z,28.27
2023-06-20T07:15:55.272Z,28.37
2023-06-20T07:18:25.074Z,28.51
2023-06-20T07:20:54.525Z,28.66
2023-06-20T07:23:23.848Z,28.81
2023-06-20T07:25:53.555Z,28.93
2023-06-20T07:28:22.746Z,29.04
2023-06-20T07:30:51.620Z,29.19
2023-06-20T07:33:20.628Z,29.31
2023-06-20T07:35:49.957Z,29.41
2023-06-20T07:38:20.114Z,29.51
2023-06-20T07:40:49.363Z,29.61
2023-06-20T07:43:20.969Z,29.68
2023-06-20T07:45:50.000Z,29.75
2023-06-20T07:48:19.084Z,29.84
2023-06-20T07:50:47.757Z,29.92
2023-06-20T07:53:16.736Z,30.00
2023-06-20T07:55:45.552Z,30.07
2023-06-20T07:58:14.649Z,30.11
2023-06-20T08:00:44.931Z,30.16
2023-06-20T08:03:14.348Z,30.22
2023-06-20T08:05:43.580Z,30.27
2023-06-20T08:08:12.772Z,30.31
2023-06-20T08:10:41.863Z,30.36
2023-06-20T08:13:12.309Z,30.41
2023-06-20T08:15:41.320Z,30.48
2023-06-20T08:18:10.429Z,30.57
2023-06-20T08:20:39.492Z,30.63
2023-06-20T08:23:08.728Z,30.68
2023-06-20T08:25:38.182Z,30.75
2023-06-20T08:28:14.708Z,30.81
2023-06-20T08:30:44.763Z,30.86
2023-06-20T08:33:13.923Z,30.89
2023-06-20T08:35:42.967Z,30.92
2023-06-20T08:38:12.248Z,30.96
2023-06-20T08:40:41.242Z,31.01
2023-06-20T08:43:16.787Z,31.06
2023-06-20T08:45:46.415Z,31.14
2023-06-20T08:48:16.040Z,31.24
2023-06-20T08:50:48.932Z,31.32
2023-06-20T08:53:22.707Z,31.39
2023-06-20T08:55:54.268Z,31.46
2023-06-20T08:58:23.968Z,31.51
2023-06-20T09:00:53.160Z,31.55
2023-06-20T09:03:22.363Z,31.61
2023-06-20T09:05:51.971Z,31.69
2023-06-20T09:08:21.705Z,31.74
2023-06-20T09:11:06.842Z,31.80
2023-06-20T09:13:36.402Z,31.84
2023-06-20T09:16:12.900Z,31.87
2023-06-20T09:18:42.647Z,31.89
2023-06-20T09:21:18.078Z,31.92
2023-06-20T09:23:47.487Z,31.94
2023-06-20T09:26:19.570Z,31.96
2023-06-20T09:28:48.644Z,31.95
2023-06-20T09:31:19.065Z,31.92
2023-06-20T09:33:48.353Z,31.97
2023-06-20T09:36:22.777Z,32.02
2023-06-20T09:38:57.801Z,32.05
2023-06-20T09:41:26.912Z,32.11
2023-06-20T09:43:56.366Z,32.13
2023-06-20T09:46:25.379Z,32.16
2023-06-20T09:48:55.723Z,32.18
2023-06-20T09:51:26.164Z,32.17
2023-06-20T09:54:25.148Z,32.14
2023-06-20T09:56:59.493Z,32.16
2023-06-20T09:59:29.739Z,32.16
2023-06-20T10:02:00.570Z,32.18
2023-06-20T10:04:31.046Z,32.24
2023-06-20T10:07:00.769Z,32.30
2023-06-20T10:09:30.088Z,32.34
2023-06-20T10:11:59.073Z,32.39
2023-06-20T10:14:27.947Z,32.42
2023-06-20T10:16:56.642Z,32.45
2023-06-20T10:19:25.634Z,32.44
2023-06-20T10:22:01.647Z,32.41
2023-06-20T10:24:32.004Z,32.45
2023-06-20T10:27:02.043Z,32.47
2023-06-20T10:29:31.260Z,32.51
2023-06-20T10:32:07.819Z,32.57
2023-06-20T10:34:42.886Z,32.66
2023-06-20T10:37:19.127Z,32.76
2023-06-20T10:39:58.565Z,32.85
2023-06-20T10:42:36.547Z,32.87
2023-06-20T10:45:22.841Z,32.89
2023-06-20T10:47:52.508Z,32.89
2023-06-20T10:50:22.798Z,32.86
2023-06-20T10:52:51.889Z,32.88
2023-06-20T10:55:25.691Z,32.90
2023-06-20T10:57:55.800Z,32.96
2023-06-20T11:00:25.821Z,33.01
2023-06-20T11:02:57.088Z,33.11
2023-06-20T11:05:31.017Z,33.20
2023-06-20T11:08:09.180Z,33.21
2023-06-20T11:10:40.947Z,33.16
2023-06-20T11:13:10.049Z,33.15
2023-06-20T11:15:39.527Z,33.14
2023-06-20T11:18:11.046Z,33.15
2023-06-20T11:20:42.042Z,33.16
2023-06-20T11:23:12.669Z,33.17
2023-06-20T11:25:46.059Z,33.21
2023-06-20T11:28:16.292Z,33.22
2023-06-20T11:30:47.789Z,33.21
2023-06-20T11:33:18.107Z,33.22
2023-06-20T11:35:54.528Z,33.26
2023-06-20T11:38:27.272Z,33.34
2023-06-20T11:41:05.908Z,33.38
2023-06-20T11:43:42.486Z,33.41
2023-06-20T11:46:14.048Z,33.43
2023-06-20T11:48:58.403Z,33.40
2023-06-20T11:51:28.301Z,33.36
2023-06-20T11:54:09.107Z,33.31
2023-06-20T11:56:38.082Z,33.29
2023-06-20T11:59:07.173Z,33.32
2023-06-20T12:01:37.113Z,33.38
2023-06-20T12:04:08.279Z,33.43
2023-06-20T12:06:39.062Z,33.46
2023-06-20T12:09:17.926Z,33.52
2023-06-20T12:11:51.109Z,33.59
2023-06-20T12:14:20.617Z,33.69
2023-06-20T12:16:50.755Z,33.80
2023-06-20T12:19:24.000Z,33.93
2023-06-20T12:21:53.001Z,33.99
2023-06-20T12:24:24.910Z,33.99
2023-06-20T12:26:55.402Z,34.03
2023-06-20T12:29:24.253Z,34.05
2023-06-20T12:31:53.815Z,34.07
2023-06-20T12:34:25.225Z,34.14
2023-06-20T12:36:54.319Z,34.16
2023-06-20T12:39:23.356Z,34.15
2023-06-20T12:41:52.410Z,34.13
2023-06-20T12:44:21.834Z,34.17
2023-06-20T12:46:51.314Z,34.18
2023-06-20T12:49:21.657Z,34.18
2023-06-20T12:51:50.835Z,34.18
2023-06-20T12:54:19.717Z,34.18
2023-06-20T12:56:48.520Z,34.18
2023-06-20T12:59:19.841Z,34.13
2023-06-20T13:01:49.614Z,34.10
2023-06-20T13:04:19.168Z,34.10
2023-06-20T13:06:48.680Z,34.15
2023-06-20T13:09:17.876Z,34.20
2023-06-20T13:11:47.912Z,34.26
2023-06-20T13:14:18.593Z,34.34
2023-06-20T13:16:51.114Z,34.42
2023-06-20T13:19:22.722Z,34.52
2023-06-20T13:21:52.260Z,34.62
2023-06-20T13:24:21.684Z,34.71
2023-06-20T13:26:51.486Z,34.71
2023-06-20T13:29:20.488Z,34.70
2023-06-20T13:31:50.286Z,34.74
2023-06-20T13:34:20.408Z,34.77
2023-06-20T13:36:49.495Z,34.81
2023-06-20T13:39:18.700Z,34.85
2023-06-20T13:41:47.887Z,34.84
2023-06-20T13:44:16.883Z,34.84
2023-06-20T13:46:46.289Z,34.78
2023-06-20T13:49:15.506Z,34.70
2023-06-20T13:51:44.803Z,34.64
2023-06-20T13:54:14.069Z,34.60
2023-06-20T13:56:42.870Z,34.59
2023-06-20T13:59:11.882Z,34.61
2023-06-20T14:01:42.704Z,34.63
2023-06-20T14:04:12.081Z,34.62
2023-06-20T14:06:41.951Z,34.60
2023-06-20T14:09:11.350Z,34.57
2023-06-20T14:11:40.614Z,34.60
2023-06-20T14:14:10.769Z,34.66
2023-06-20T14:16:39.872Z,34.69
2023-06-20T14:19:09.150Z,34.73
2023-06-20T14:21:38.437Z,34.77
2023-06-20T14:24:07.448Z,34.86
2023-06-20T14:26:36.428Z,35.00
2023-06-20T14:29:05.230Z,35.08
2023-06-20T14:31:34.370Z,35.19
2023-06-20T14:34:03.614Z,35.29
2023-06-20T14:36:36.712Z,35.32
2023-06-20T14:39:06.333Z,35.32
2023-06-20T14:41:35.307Z,35.33
2023-06-20T14:44:05.428Z,35.31
2023-06-20T14:46:34.648Z,35.29
2023-06-20T14:49:03.726Z,35.27
2023-06-20T14:51:32.631Z,35.24
2023-06-20T14:54:01.410Z,35.17
2023-06-20T14:56:30.509Z,35.11
2023-06-20T14:58:59.493Z,35.06
2023-06-20T15:01:28.834Z,34.98
2023-06-20T15:03:58.475Z,34.89
2023-06-20T15:06:27.819Z,34.80
2023-06-20T15:08:57.193Z,34.72
2023-06-20T15:11:25.986Z,34.62
2023-06-20T15:13:55.003Z,34.53
2023-06-20T15:16:24.053Z,34.42
2023-06-20T15:18:52.757Z,34.25
2023-06-20T15:21:22.369Z,34.08
2023-06-20T15:23:51.365Z,33.90
2023-06-20T15:26:20.171Z,33.73
2023-06-20T15:28:49.354Z,33.57
2023-06-20T15:31:19.199Z,33.42
2023-06-20T15:33:48.865Z,33.25
2023-06-20T15:36:17.889Z,33.07
2023-06-20T15:38:47.115Z,32.89
2023-06-20T15:41:17.188Z,32.74
2023-06-20T15:43:46.489Z,32.57
2023-06-20T15:46:15.913Z,32.38
2023-06-20T15:49:01.281Z,32.22
2023-06-20T15:51:31.067Z,32.04
2023-06-20T15:54:00.279Z,31.88
2023-06-20T15:56:29.814Z,31.73
2023-06-20T15:58:59.323Z,31.61
2023-06-20T16:01:29.124Z,31.52
2023-06-20T16:03:58.403Z,31.45
2023-06-20T16:06:28.636Z,31.39
2023-06-20T16:08:57.708Z,31.31
2023-06-20T16:11:30.294Z,31.21
2023-06-20T16:13:59.747Z,31.09
2023-06-20T16:16:29.481Z,30.96
2023-06-20T16:18:58.175Z,30.83
2023-06-20T16:21:32.099Z,30.71
2023-06-20T16:24:01.173Z,30.60
2023-06-20T16:26:30.183Z,30.50
2023-06-20T16:29:00.714Z,30.41
2023-06-20T16:31:29.707Z,30.30
2023-06-20T16:33:58.604Z,30.24
2023-06-20T16:36:27.580Z,30.19
2023-06-20T16:38:56.685Z,30.14
2023-06-20T16:41:26.623Z,30.10
2023-06-20T16:43:55.638Z,30.08
2023-06-20T16:46:24.725Z,30.08
2023-06-20T16:48:53.670Z,30.10
2023-06-20T16:51:22.885Z,30.12
2023-06-20T16:53:52.400Z,30.15
2023-06-20T16:56:24.003Z,30.17
2023-06-20T16:58:54.947Z,30.18
2023-06-20T17:01:24.688Z,30.16
2023-06-20T17:03:53.797Z,30.10
2023-06-20T17:06:22.622Z,30.00
2023-06-20T17:08:51.565Z,29.89
2023-06-20T17:11:23.350Z,29.77
2023-06-20T17:13:54.367Z,29.65
2023-06-20T17:16:23.599Z,29.56
2023-06-20T17:18:53.272Z,29.46
2023-06-20T17:21:23.874Z,29.39
2023-06-20T17:23:53.898Z,29.36
2023-06-20T17:26:22.638Z,29.33
2023-06-20T17:28:51.498Z,29.31
2023-06-20T17:31:21.144Z,29.28
2023-06-20T17:33:50.298Z,29.26
2023-06-20T17:36:19.504Z,29.24
2023-06-20T17:38:49.101Z,29.21
2023-06-20T17:41:19.523Z,29.18
2023-06-20T17:43:48.744Z,29.13
2023-06-20T17:46:18.277Z,29.07
2023-06-20T17:48:47.350Z,29.00
2023-06-20T17:51:16.330Z,28.94
2023-06-20T17:53:45.961Z,28.89
2023-06-20T17:56:15.833Z,28.81
2023-06-20T17:58:44.838Z,28.71
2023-06-20T18:01:14.123Z,28.63
2023-06-20T18:03:43.487Z,28.57
2023-06-20T18:06:13.036Z,28.50
2023-06-20T18:08:42.651Z,28.44
2023-06-20T18:11:13.011Z,28.37
2023-06-20T18:13:41.746Z,28.31
2023-06-20T18:16:15.214Z,28.23
2023-06-20T18:18:45.842Z,28.16
2023-06-20T18:21:15.105Z,28.08
2023-06-20T18:23:44.399Z,28.03
2023-06-20T18:26:16.746Z,27.97
2023-06-20T18:28:45.804Z,27.91
2023-06-20T18:31:15.079Z,27.85
2023-06-20T18:33:44.245Z,27.79
2023-06-20T18:36:13.511Z,27.74
2023-06-20T18:38:44.180Z,27.69
2023-06-20T18:41:13.247Z,27.63
2023-06-20T18:43:43.655Z,27.54
2023-06-20T18:46:12.899Z,27.48
2023-06-20T18:48:42.610Z,27.43
2023-06-20T18:51:13.226Z,27.40
2023-06-20T18:53:42.577Z,27.37
2023-06-20T18:56:14.856Z,27.31
2023-06-20T18:58:45.902Z,27.24
2023-06-20T19:01:17.749Z,27.17
2023-06-20T19:03:48.176Z,27.08
2023-06-20T19:06:18.374Z,27.00
2023-06-20T19:08:48.080Z,26.94
2023-06-20T19:11:20.506Z,26.87
2023-06-20T19:13:51.071Z,26.80
2023-06-20T19:16:22.823Z,26.74
2023-06-20T19:18:52.148Z,26.68
2023-06-20T19:21:22.260Z,26.62
2023-06-20T19:23:53.594Z,26.56
2023-06-20T19:26:22.809Z,26.50
2023-06-20T19:28:52.000Z,26.43
2023-06-20T19:31:22.180Z,26.37
2023-06-20T19:33:51.413Z,26.31
2023-06-20T19:36:20.718Z,26.24
2023-06-20T19:38:50.154Z,26.17
2023-06-20T19:41:19.848Z,26.11
2023-06-20T19:43:49.122Z,26.04
2023-06-20T19:46:18.962Z,25.98
2023-06-20T19:48:50.289Z,25.91
2023-06-20T19:51:20.331Z,25.84
2023-06-20T19:53:51.618Z,25.77
2023-06-20T19:56:20.773Z,25.70
2023-06-20T19:58:52.829Z,25.63
2023-06-20T20:01:23.141Z,25.57
2023-06-20T20:03:52.831Z,25.51
2023-06-20T20:06:23.611Z,25.45
2023-06-20T20:08:52.494Z,25.39
2023-06-20T20:11:22.467Z,25.33
2023-06-20T20:13:52.110Z,25.28
2023-06-20T20:16:21.861Z,25.22
2023-06-20T20:18:51.450Z,25.18
2023-06-20T20:21:20.551Z,25.12
2023-06-20T20:23:50.037Z,25.06
2023-06-20T20:26:20.368Z,25.00
2023-06-20T20:31:24.180Z,24.88
2023-06-20T20:33:54.098Z,24.80
2023-06-20T20:36:24.309Z,24.74
2023-06-20T20:38:53.799Z,24.66
2023-06-20T20:41:22.915Z,24.60
2023-06-20T20:43:52.228Z,24.52
2023-06-20T20:46:22.652Z,24.46
2023-06-20T20:48:53.055Z,24.40
2023-06-20T20:51:22.476Z,24.35
2023-06-20T20:53:51.846Z,24.31
2023-06-20T20:56:20.844Z,24.27
2023-06-20T20:58:50.038Z,24.23
2023-06-20T21:01:19.031Z,24.19
2023-06-20T21:03:48.384Z,24.16
2023-06-20T21:06:17.845Z,24.11
2023-06-20T21:08:46.747Z,24.07
2023-06-20T21:11:16.865Z,24.03
2023-06-20T21:13:47.825Z,23.98
2023-06-20T21:16:17.000Z,23.94
2023-06-20T21:18:46.325Z,23.89
2023-06-20T21:21:15.807Z,23.84
2023-06-20T21:23:44.708Z,23.81
2023-06-20T21:26:16.651Z,23.76
2023-06-20T21:28:45.454Z,23.71
2023-06-20T21:31:14.722Z,23.67
2023-06-20T21:33:44.357Z,23.63
2023-06-20T21:36:13.359Z,23.59
2023-06-20T21:38:43.783Z,23.54
2023-06-20T21:41:14.710Z,23.48
2023-06-20T21:43:44.640Z,23.43
2023-06-20T21:46:13.850Z,23.39
2023-06-20T21:48:43.241Z,23.32
2023-06-20T21:51:12.341Z,23.25
2023-06-20T21:53:41.685Z,23.19
2023-06-20T21:56:10.519Z,23.13
2023-06-20T21:58:39.932Z,23.09
2023-06-20T22:01:13.274Z,23.05
2023-06-20T22:03:42.300Z,23.00
2023-06-20T22:06:12.653Z,22.94
2023-06-20T22:08:42.864Z,22.89
2023-06-20T22:11:11.658Z,22.86
2023-06-20T22:13:41.043Z,22.82
2023-06-20T22:16:09.628Z,22.78
2023-06-20T22:18:38.610Z,22.72
2023-06-20T22:21:07.518Z,22.67
2023-06-20T22:23:36.613Z,22.62
2023-06-20T22:26:05.487Z,22.59
2023-06-20T22:28:34.506Z,22.55
2023-06-20T22:31:03.808Z,22.51
2023-06-20T22:33:32.899Z,22.49
2023-06-20T22:36:01.998Z,22.46
2023-06-20T22:38:32.423Z,22.44
2023-06-20T22:41:01.391Z,22.43
2023-06-20T22:43:32.559Z,22.41
2023-06-20T22:46:01.478Z,22.39
2023-06-20T22:48:31.355Z,22.38
2023-06-20T22:51:00.330Z,22.36
2023-06-20T22:53:29.231Z,22.32
2023-06-20T22:55:58.426Z,22.26
2023-06-20T22:58:27.111Z,22.21
2023-06-20T23:00:56.087Z,22.17
2023-06-20T23:03:25.989Z,22.13
2023-06-20T23:05:55.429Z,22.10
2023-06-20T23:08:24.311Z,22.06
2023-06-20T23:10:53.419Z,22.02
2023-06-20T23:13:22.194Z,21.98
2023-06-20T23:15:52.287Z,21.93
2023-06-20T23:18:24.203Z,21.90
2023-06-20T23:20:54.096Z,21.88
2023-06-20T23:23:23.077Z,21.85
2023-06-20T23:25:51.972Z,21.82
2023-06-20T23:28:23.417Z,21.77
2023-06-20T23:30:52.432Z,21.70
2023-06-20T23:33:21.842Z,21.64
2023-06-20T23:35:51.438Z,21.58
2023-06-20T23:38:20.219Z,21.54
2023-06-20T23:40:49.556Z,21.49
2023-06-20T23:43:18.777Z,21.44
2023-06-20T23:45:49.032Z,21.39
2023-06-20T23:48:18.146Z,21.33
2023-06-20T23:50:47.156Z,21.27
2023-06-20T23:53:16.309Z,21.21
2023-06-20T23:55:45.841Z,21.16
2023-06-20T23:58:14.606Z,21.11
